Time;durP1;ratioP1;P1;durP2;ratioP2;P2;SDS_P1;SDS_P2;PMS_P1;PMS_P2;Temp;Humidity;BMP_temperature;BMP_pressure;BME280_temperature;BME280_humidity;BME280_pressure;Samples;Min_cycle;Max_cycle;Signal;HPM_P1;HPM_P2
2023/10/04 00:01:24;;;;;;;6.60;5.40;;;;;;;12.92;96.81;101463.78;5117324;28;20268;-80
2023/10/04 00:03:51;;;;;;;7.30;5.43;;;;;;;12.89;97.06;101475.53;5120265;28;20232;-80
2023/10/04 00:06:18;;;;;;;7.50;5.10;;;;;;;12.88;96.84;101481.84;5119124;28;20222;-80
2023/10/04 00:08:44;;;;;;;8.37;5.30;;;;;;;12.87;97.24;101472.09;5123458;28;20215;-80
2023/10/04 00:11:14;;;;;;;8.90;5.00;;;;;;;12.87;97.30;101477.44;5121194;28;20207;-81
2023/10/04 00:13:43;;;;;;;7.90;4.93;;;;;;;12.87;96.57;101477.44;5119340;28;20211;-81
2023/10/04 00:16:10;;;;;;;7.33;5.30;;;;;;;12.86;95.96;101467.69;5112018;28;20307;-80
2023/10/04 00:18:37;;;;;;;10.40;5.03;;;;;;;12.85;96.16;101471.31;5118135;28;20228;-81
2023/10/04 00:21:06;;;;;;;9.03;5.00;;;;;;;12.86;95.65;101473.91;5117480;28;20200;-80
2023/10/04 00:23:32;;;;;;;9.20;5.17;;;;;;;12.83;95.62;101481.25;5119254;28;20249;-80
2023/10/04 00:25:59;;;;;;;7.37;4.93;;;;;;;12.82;95.84;101475.03;5114874;28;20599;-80
2023/10/04 00:28:25;;;;;;;9.10;5.57;;;;;;;12.83;95.87;101483.91;5119221;28;20625;-80
2023/10/04 00:30:53;;;;;;;8.87;5.63;;;;;;;12.80;95.51;101468.91;5118650;28;20199;-80
2023/10/04 00:33:20;;;;;;;8.93;5.40;;;;;;;12.78;95.85;101470.81;5111942;28;20550;-80
2023/10/04 00:35:47;;;;;;;9.07;6.20;;;;;;;12.78;96.03;101486.84;5115136;28;20231;-80
2023/10/04 00:38:14;;;;;;;11.03;5.40;;;;;;;12.78;95.59;101465.47;5114248;28;20199;-80
2023/10/04 00:40:43;;;;;;;7.97;4.80;;;;;;;12.79;95.63;101469.00;5112409;28;20684;-80
2023/10/04 00:43:13;;;;;;;7.43;5.20;;;;;;;12.78;95.22;101469.94;5117117;28;20206;-80
2023/10/04 00:45:40;;;;;;;10.03;5.10;;;;;;;12.79;94.75;101460.97;5114629;28;20285;-79
2023/10/04 00:48:11;;;;;;;9.80;5.37;;;;;;;12.78;94.84;101465.47;5107981;28;20207;-79
2023/10/04 00:50:37;;;;;;;10.03;5.13;;;;;;;12.77;94.93;101463.75;5113703;28;20249;-79
2023/10/04 00:53:07;;;;;;;7.33;5.53;;;;;;;12.77;94.91;101477.09;5118489;28;20312;-80
2023/10/04 00:55:37;;;;;;;9.70;5.13;;;;;;;12.78;95.08;101483.31;5112971;28;20231;-80
2023/10/04 00:58:07;;;;;;;10.03;5.23;;;;;;;12.77;94.74;101474.44;5113646;28;20256;-80
2023/10/04 01:00:34;;;;;;;8.37;5.13;;;;;;;12.77;94.58;101478.91;5115005;28;20199;-80
2023/10/04 01:03:01;;;;;;;6.20;4.40;;;;;;;12.77;94.53;101473.56;5111389;28;20200;-80
2023/10/04 01:05:30;;;;;;;9.00;4.70;;;;;;;12.77;94.68;101476.25;5113967;28;20219;-80
2023/10/04 01:07:57;;;;;;;8.90;4.40;;;;;;;12.76;94.75;101471.84;5109733;28;20203;-81
2023/10/04 01:10:30;;;;;;;9.63;4.60;;;;;;;12.77;94.49;101469.09;5105531;28;20230;-80
2023/10/04 01:12:57;;;;;;;9.90;4.77;;;;;;;12.77;94.56;101463.75;5109898;28;20648;-81
2023/10/04 01:15:32;;;;;;;8.17;4.00;;;;;;;12.75;94.40;101467.47;5103287;28;20225;-80
2023/10/04 01:18:00;;;;;;;8.30;4.07;;;;;;;12.75;94.26;101476.34;5108769;28;20293;-80
2023/10/04 01:20:30;;;;;;;8.90;3.90;;;;;;;12.76;94.51;101474.53;5107992;28;20204;-80
2023/10/04 01:23:00;;;;;;;6.00;3.60;;;;;;;12.75;94.26;101473.66;5115790;28;20832;-80
2023/10/04 01:25:29;;;;;;;6.57;3.70;;;;;;;12.75;94.31;101476.34;5105518;28;20321;-80
2023/10/04 01:27:55;;;;;;;9.07;3.87;;;;;;;12.73;94.57;101478.22;5108685;28;20259;-80
2023/10/04 01:30:22;;;;;;;7.17;3.73;;;;;;;12.73;94.57;101483.59;5114195;28;20223;-80
2023/10/04 01:32:50;;;;;;;8.73;4.43;;;;;;;12.76;94.30;101477.19;5112010;28;20241;-80
2023/10/04 01:35:18;;;;;;;8.23;4.17;;;;;;;12.74;94.92;101481.78;5112455;28;20219;-81
2023/10/04 01:37:45;;;;;;;7.97;4.83;;;;;;;12.74;94.69;101479.09;5109002;28;20658;-80
2023/10/04 01:40:13;;;;;;;8.80;4.73;;;;;;;12.73;94.80;101488.06;5105102;28;20810;-80
2023/10/04 01:42:41;;;;;;;8.60;4.50;;;;;;;12.74;94.83;101481.78;5108073;28;20215;-80
2023/10/04 01:45:11;;;;;;;7.97;3.80;;;;;;;12.72;94.37;101481.03;5112812;28;20758;-80
2023/10/04 01:47:38;;;;;;;7.70;3.73;;;;;;;12.71;94.28;101482.84;5109027;28;20214;-80
2023/10/04 01:50:06;;;;;;;7.50;4.00;;;;;;;12.71;94.31;101488.19;5108711;28;20216;-80
2023/10/04 01:52:32;;;;;;;6.30;4.27;;;;;;;12.73;93.92;101483.59;5107174;28;20200;-80
2023/10/04 01:55:00;;;;;;;7.53;3.50;;;;;;;12.70;94.09;101488.28;5107577;28;20227;-80
2023/10/04 01:57:28;;;;;;;7.93;4.30;;;;;;;12.68;94.34;101490.16;5114192;28;20210;-80
2023/10/04 01:59:55;;;;;;;10.53;4.50;;;;;;;12.67;94.20;101486.63;5109977;28;20200;-80
2023/10/04 02:02:23;;;;;;;7.47;4.57;;;;;;;12.67;94.05;101491.97;5102283;28;20211;-80
2023/10/04 02:04:53;;;;;;;7.37;5.27;;;;;;;12.66;94.51;101487.59;5112247;28;20229;-80
2023/10/04 02:07:23;;;;;;;8.60;5.23;;;;;;;12.65;94.25;101479.66;5110011;28;20230;-80
2023/10/04 02:09:50;;;;;;;12.57;5.70;;;;;;;12.67;94.40;101491.97;5109308;28;20259;-80
2023/10/04 02:12:18;;;;;;;8.50;5.63;;;;;;;12.66;94.48;101492.06;5106914;28;20229;-80
2023/10/04 02:14:46;;;;;;;8.53;5.07;;;;;;;12.66;94.71;101484.06;5107190;28;20228;-80
2023/10/04 02:17:16;;;;;;;10.13;5.43;;;;;;;12.65;94.72;101488.53;5112854;28;20206;-80
2023/10/04 02:19:42;;;;;;;7.87;5.27;;;;;;;12.64;94.32;101483.28;5109528;28;20210;-80
2023/10/04 02:22:10;;;;;;;11.73;6.13;;;;;;;12.60;94.42;101479.91;5107071;28;20206;-80
2023/10/04 02:24:38;;;;;;;8.27;5.83;;;;;;;12.62;94.56;101487.84;5110391;28;20234;-80
2023/10/04 02:27:06;;;;;;;8.23;6.03;;;;;;;12.60;94.66;101489.75;5109546;28;20208;-80
2023/10/04 02:29:34;;;;;;;11.13;5.77;;;;;;;12.59;94.68;101485.34;5105623;28;20238;-80
2023/10/04 02:32:08;;;;;;;11.93;5.80;;;;;;;12.60;94.63;101495.94;5102281;28;20286;-80
2023/10/04 02:34:35;;;;;;;8.93;5.63;;;;;;;12.59;94.83;101504.06;5103160;28;20310;-80
2023/10/04 02:37:03;;;;;;;9.70;4.80;;;;;;;12.61;94.50;101502.16;5111741;28;20267;-80
2023/10/04 02:39:30;;;;;;;10.17;5.10;;;;;;;12.60;94.48;101509.31;5108219;28;20223;-81
2023/10/04 02:41:56;;;;;;;8.50;5.27;;;;;;;12.59;94.95;101506.72;5105459;28;20198;-80
2023/10/04 02:44:23;;;;;;;12.00;5.80;;;;;;;12.57;94.59;101508.63;5104474;28;20770;-80
2023/10/04 02:46:49;;;;;;;6.10;4.73;;;;;;;12.57;94.88;101509.47;5111628;28;20210;-80
2023/10/04 02:49:17;;;;;;;8.03;4.57;;;;;;;12.56;94.81;101509.56;5109493;28;20200;-80
2023/10/04 02:51:44;;;;;;;7.63;5.03;;;;;;;12.56;95.14;101512.25;5103689;28;20227;-80
2023/10/04 02:54:12;;;;;;;8.70;5.40;;;;;;;12.56;94.78;101510.44;5109671;28;20200;-80
2023/10/04 02:56:45;;;;;;;11.43;4.97;;;;;;;12.56;95.26;101517.59;5105509;28;20211;-80
2023/10/04 02:59:12;;;;;;;11.67;5.57;;;;;;;12.55;95.23;101513.19;5107076;28;20622;-80
2023/10/04 03:01:41;;;;;;;10.40;5.83;;;;;;;12.56;94.96;101501.56;5110607;28;20230;-80
2023/10/04 03:04:09;;;;;;;9.50;5.10;;;;;;;12.52;95.56;101512.44;5109030;28;20199;-80
2023/10/04 03:06:38;;;;;;;6.70;5.40;;;;;;;12.55;95.44;101510.53;5107288;28;20211;-80
2023/10/04 03:09:05;;;;;;;9.83;5.60;;;;;;;12.54;95.38;101506.97;5109210;28;20204;-80
2023/10/04 03:11:32;;;;;;;8.37;5.07;;;;;;;12.54;95.53;101504.31;5106133;28;20322;-80
2023/10/04 03:14:02;;;;;;;7.37;4.60;;;;;;;12.52;95.40;101515.13;5107919;28;20207;-80
2023/10/04 03:16:29;;;;;;;9.77;4.60;;;;;;;12.55;95.46;101505.19;5111656;28;20747;-79
2023/10/04 03:18:55;;;;;;;6.93;4.23;;;;;;;12.57;95.37;101513.97;5108841;28;20212;-80
2023/10/04 03:21:22;;;;;;;10.77;4.27;;;;;;;12.57;95.39;101516.63;5103955;28;20206;-80
2023/10/04 03:23:54;;;;;;;9.90;4.53;;;;;;;12.59;95.45;101518.28;5109760;28;20203;-80
2023/10/04 03:26:20;;;;;;;12.20;4.83;;;;;;;12.59;94.93;101523.63;5108452;28;20219;-80
2023/10/04 03:28:47;;;;;;;15.40;4.10;;;;;;;12.60;95.72;101519.13;5107697;28;20207;-80
2023/10/04 03:31:15;;;;;;;5.90;3.93;;;;;;;12.62;95.33;101527.94;5111409;28;20579;-79
2023/10/04 03:33:43;;;;;;;11.30;4.40;;;;;;;12.63;95.47;101521.63;5110475;28;20234;-80
2023/10/04 03:36:14;;;;;;;7.63;3.90;;;;;;;12.64;95.53;101526.91;5109365;28;20223;-80
2023/10/04 03:38:41;;;;;;;10.23;5.13;;;;;;;12.67;95.38;101533.88;5103955;28;20199;-80
2023/10/04 03:41:09;;;;;;;9.27;5.07;;;;;;;12.69;95.13;101530.19;5107325;28;20195;-80
2023/10/04 03:43:35;;;;;;;7.17;4.80;;;;;;;12.70;94.82;101537.25;5103103;28;20566;-81
2023/10/04 03:46:16;;;;;;;10.03;5.50;;;;;;;12.75;95.10;101535.13;5106222;28;20250;-81
2023/10/04 03:48:43;;;;;;;6.40;4.47;;;;;;;12.76;94.38;101527.97;5108574;28;20603;-81
2023/10/04 03:51:10;;;;;;;9.27;5.10;;;;;;;12.78;94.20;101544.78;5105849;28;20227;-82
2023/10/04 03:53:36;;;;;;;10.77;4.50;;;;;;;12.79;94.39;101547.38;5111445;28;20206;-81
2023/10/04 03:56:04;;;;;;;9.93;4.83;;;;;;;12.79;94.68;101541.19;5107945;28;20219;-82
2023/10/04 03:58:32;;;;;;;8.03;4.80;;;;;;;12.81;94.42;101544.63;5103501;28;20203;-82
2023/10/04 04:00:58;;;;;;;10.33;5.77;;;;;;;12.80;94.72;101534.88;5101655;28;20241;-81
2023/10/04 04:03:25;;;;;;;8.10;5.50;;;;;;;12.82;94.50;101541.00;5105917;28;20203;-81
2023/10/04 04:05:53;;;;;;;8.80;5.30;;;;;;;12.85;94.51;101538.16;5110097;28;20703;-81
2023/10/04 04:08:20;;;;;;;6.53;4.60;;;;;;;12.84;94.12;101537.28;5108844;28;20282;-82
2023/10/04 04:10:46;;;;;;;8.40;5.30;;;;;;;12.86;93.71;101513.16;5111771;28;20249;-81
2023/10/04 04:13:13;;;;;;;10.30;4.53;;;;;;;12.88;94.27;101539.78;5111788;28;20650;-81
2023/10/04 04:15:41;;;;;;;6.87;4.57;;;;;;;12.88;93.76;101527.28;5117779;28;20215;-81
2023/10/04 04:18:13;;;;;;;7.20;5.10;;;;;;;12.86;93.81;101531.84;5115473;28;20547;-82
2023/10/04 04:20:41;;;;;;;8.30;5.03;;;;;;;12.86;93.95;101527.38;5112254;28;20640;-81
2023/10/04 04:23:10;;;;;;;8.63;5.33;;;;;;;12.86;94.12;101522.03;5109948;28;20205;-81
2023/10/04 04:25:40;;;;;;;9.20;5.10;;;;;;;12.86;94.23;101523.84;5116254;27;20212;-81
2023/10/04 04:28:09;;;;;;;8.37;5.40;;;;;;;12.85;93.79;101524.78;5114977;27;20206;-81
2023/10/04 04:30:36;;;;;;;7.73;5.43;;;;;;;12.82;94.16;101519.63;5113223;28;20693;-81
2023/10/04 04:33:07;;;;;;;8.27;5.83;;;;;;;12.82;94.11;101511.59;5110146;28;20207;-80
2023/10/04 04:35:47;;;;;;;10.30;6.23;;;;;;;12.82;93.81;101523.16;5117030;28;20288;-81
2023/10/04 04:38:19;;;;;;;9.07;6.17;;;;;;;12.80;93.66;101519.69;5112621;28;20223;-81
2023/10/04 04:40:48;;;;;;;9.97;5.70;;;;;;;12.78;93.86;101518.94;5114593;28;20211;-79
2023/10/04 04:43:35;;;;;;;7.17;5.30;;;;;;;12.75;94.08;101519.09;5113651;28;20208;-81
2023/10/04 04:46:06;;;;;;;11.37;6.17;;;;;;;12.73;94.36;101526.34;5106341;28;20322;-81
2023/10/04 04:48:36;;;;;;;9.53;6.53;;;;;;;12.70;94.61;101521.22;5110993;28;20295;-79
2023/10/04 04:51:08;;;;;;;10.80;6.60;;;;;;;12.67;94.43;101521.38;5112782;28;20247;-79
2023/10/04 04:53:34;;;;;;;13.60;6.57;;;;;;;12.66;94.96;101524.13;5111435;28;20249;-81
2023/10/04 04:56:02;;;;;;;8.33;5.77;;;;;;;12.68;95.03;101517.75;5109818;28;20228;-81
2023/10/04 04:58:30;;;;;;;7.87;6.17;;;;;;;12.67;95.15;101523.19;5107244;28;20338;-80
2023/10/04 05:01:00;;;;;;;8.40;6.33;;;;;;;12.64;95.32;101526.91;5103290;28;20203;-81
2023/10/04 05:03:27;;;;;;;7.80;6.43;;;;;;;12.63;95.66;101532.34;5105801;28;20203;-80
2023/10/04 05:05:56;;;;;;;9.27;6.30;;;;;;;12.62;95.50;101551.97;5107711;28;20225;-82
2023/10/04 05:08:24;;;;;;;16.63;6.70;;;;;;;12.60;95.76;101545.84;5103815;28;20204;-82
2023/10/04 05:10:51;;;;;;;12.23;7.10;;;;;;;12.61;95.97;101547.59;5103853;28;20247;-81
2023/10/04 05:13:18;;;;;;;10.87;7.57;;;;;;;12.62;95.71;101557.34;5105989;28;20196;-80
2023/10/04 05:15:45;;;;;;;10.57;7.97;;;;;;;12.60;96.23;101567.25;5109753;28;20310;-82
2023/10/04 05:18:15;;;;;;;11.03;7.13;;;;;;;12.57;96.14;101570.94;5110748;28;20206;-81
2023/10/04 05:20:42;;;;;;;11.27;8.13;;;;;;;12.58;96.37;101570.00;5106113;28;20631;-81
2023/10/04 05:23:10;;;;;;;10.47;7.97;;;;;;;12.59;96.77;101573.53;5107535;28;20207;-81
2023/10/04 05:25:37;;;;;;;12.03;7.97;;;;;;;12.57;96.90;101573.63;5107279;28;20226;-80
2023/10/04 05:28:04;;;;;;;9.43;7.57;;;;;;;12.57;97.01;101586.13;5110865;28;20203;-81
2023/10/04 05:30:31;;;;;;;12.40;7.70;;;;;;;12.59;96.72;101594.91;5109539;28;20227;-80
2023/10/04 05:32:58;;;;;;;10.00;7.80;;;;;;;12.57;97.00;101596.81;5109194;28;20201;-81
2023/10/04 05:35:24;;;;;;;9.70;7.40;;;;;;;12.58;97.16;101599.41;5103976;28;20714;-81
2023/10/04 05:37:51;;;;;;;8.60;7.70;;;;;;;12.58;97.00;101603.88;5107307;28;20212;-80
2023/10/04 05:40:25;;;;;;;11.53;8.33;;;;;;;12.55;97.20;101604.03;5107976;28;20226;-80
2023/10/04 05:42:53;;;;;;;10.70;8.60;;;;;;;12.58;97.25;101606.53;5108512;28;20290;-80
2023/10/04 05:45:20;;;;;;;13.80;8.67;;;;;;;12.57;97.00;101603.00;5107914;28;20220;-80
2023/10/04 05:47:48;;;;;;;12.80;9.10;;;;;;;12.56;97.33;101603.09;5110061;28;20271;-81
2023/10/04 05:50:17;;;;;;;11.37;9.00;;;;;;;12.54;97.51;101610.38;5111764;28;20210;-81
2023/10/04 05:52:44;;;;;;;11.40;8.27;;;;;;;12.56;97.56;101595.06;5112573;28;20220;-81
2023/10/04 05:55:11;;;;;;;13.63;9.73;;;;;;;12.52;97.40;101589.94;5112810;28;20237;-81
2023/10/04 05:57:39;;;;;;;12.33;8.93;;;;;;;12.57;97.13;101591.47;5112449;28;20214;-81
2023/10/04 06:00:22;;;;;;;10.53;8.97;;;;;;;12.54;97.23;101616.53;5110806;28;20212;-80
2023/10/04 06:02:49;;;;;;;14.80;9.57;;;;;;;12.53;97.70;101614.84;5112170;28;20207;-82
2023/10/04 06:05:16;;;;;;;11.63;9.80;;;;;;;12.52;97.70;101608.63;5107673;28;20228;-82
2023/10/04 06:07:43;;;;;;;13.87;9.97;;;;;;;12.53;97.99;101609.50;5112274;28;20559;-81
2023/10/04 06:10:11;;;;;;;12.73;10.13;;;;;;;12.52;97.82;101622.00;5108253;28;20233;-82
2023/10/04 06:12:39;;;;;;;15.53;11.27;;;;;;;12.52;98.08;101627.34;5107930;28;20946;-81
2023/10/04 06:15:10;;;;;;;13.83;11.10;;;;;;;12.52;97.76;101613.97;5110250;28;20243;-81
2023/10/04 06:17:38;;;;;;;12.87;11.07;;;;;;;12.54;98.01;101618.38;5112397;28;20210;-81
2023/10/04 06:20:22;;;;;;;13.83;11.37;;;;;;;12.56;98.06;101629.81;5108452;28;20203;-82
2023/10/04 06:22:49;;;;;;;17.27;11.20;;;;;;;12.56;97.89;101629.81;5107966;28;21699;-82
2023/10/04 06:25:16;;;;;;;15.57;12.07;;;;;;;12.55;98.05;101622.75;5109701;28;20223;-81
2023/10/04 06:27:44;;;;;;;15.90;12.77;;;;;;;12.54;98.31;101619.22;5106194;28;20210;-80
2023/10/04 06:30:11;;;;;;;14.87;11.97;;;;;;;12.56;98.38;101635.16;5104636;28;20211;-81
2023/10/04 06:32:38;;;;;;;13.03;11.70;;;;;;;12.57;98.19;101637.75;5103591;28;20215;-81
2023/10/04 06:35:06;;;;;;;16.70;11.67;;;;;;;12.57;98.66;101643.09;5106486;28;20227;-80
2023/10/04 06:37:33;;;;;;;17.10;12.63;;;;;;;12.56;98.93;101636.03;5107814;28;20200;-81
2023/10/04 06:40:01;;;;;;;16.73;11.67;;;;;;;12.58;99.05;101638.63;5108374;28;20227;-81
2023/10/04 06:42:27;;;;;;;15.13;11.23;;;;;;;12.58;98.71;101643.97;5111006;28;20191;-81
2023/10/04 06:44:55;;;;;;;24.20;12.10;;;;;;;12.59;99.23;101633.19;5108248;28;20711;-81
2023/10/04 06:47:23;;;;;;;14.67;11.47;;;;;;;12.61;99.21;101635.78;5111589;28;20278;-81
2023/10/04 06:49:50;;;;;;;14.60;10.97;;;;;;;12.64;98.92;101640.97;5102873;28;20260;-81
2023/10/04 06:52:16;;;;;;;13.07;10.40;;;;;;;12.67;99.03;101638.97;5107193;28;20202;-81
2023/10/04 06:54:43;;;;;;;14.30;10.27;;;;;;;12.68;98.79;101635.34;5108293;28;20225;-81
2023/10/04 06:57:09;;;;;;;12.03;9.33;;;;;;;12.71;98.47;101642.34;5102476;28;20235;-81
2023/10/04 06:59:36;;;;;;;13.13;10.27;;;;;;;12.75;98.08;101649.22;5105933;28;20538;-82
2023/10/04 07:02:04;;;;;;;12.67;11.33;;;;;;;12.77;98.13;101645.50;5108204;28;20197;-82
2023/10/04 07:04:31;;;;;;;9.60;8.60;;;;;;;12.82;98.10;101638.09;5104950;28;20273;-81
2023/10/04 07:06:58;;;;;;;16.33;10.33;;;;;;;12.84;98.01;101654.94;5105088;28;20199;-81
2023/10/04 07:09:27;;;;;;;16.97;10.57;;;;;;;12.89;97.31;101646.66;5103887;28;20270;-81
2023/10/04 07:11:54;;;;;;;11.93;10.27;;;;;;;12.92;97.14;101653.59;5104726;28;20269;-81
2023/10/04 07:14:20;;;;;;;15.17;10.60;;;;;;;12.96;96.94;101653.34;5104395;28;20768;-81
2023/10/04 07:16:47;;;;;;;11.33;10.13;;;;;;;12.99;97.43;101661.19;5111668;28;20269;-81
2023/10/04 07:19:16;;;;;;;14.33;10.70;;;;;;;13.06;96.98;101667.06;5111610;28;20209;-80
2023/10/04 07:21:42;;;;;;;13.87;11.17;;;;;;;13.10;96.17;101668.59;5107259;28;20671;-81
2023/10/04 07:24:09;;;;;;;16.20;11.23;;;;;;;13.14;96.27;101668.34;5105639;28;20260;-82
2023/10/04 07:26:36;;;;;;;15.63;11.77;;;;;;;13.18;96.53;101679.75;5108690;28;20203;-80
2023/10/04 07:29:03;;;;;;;14.97;10.87;;;;;;;13.24;96.28;101686.59;5106281;28;20212;-81
2023/10/04 07:31:31;;;;;;;12.83;10.27;;;;;;;13.31;94.82;101691.47;5108483;28;20223;-81
2023/10/04 07:33:57;;;;;;;13.43;9.57;;;;;;;13.37;94.19;101698.28;5107397;28;20754;-80
2023/10/04 07:36:25;;;;;;;11.30;9.10;;;;;;;13.41;94.00;101706.06;5103176;28;20231;-80
2023/10/04 07:38:52;;;;;;;19.93;11.33;;;;;;;13.48;93.17;101709.22;5109824;28;20207;-81
2023/10/04 07:41:18;;;;;;;12.83;10.17;;;;;;;13.52;93.01;101721.47;5108243;28;20199;-80
2023/10/04 07:43:44;;;;;;;15.90;10.47;;;;;;;13.60;93.37;101721.88;5101923;28;20200;-81
2023/10/04 07:46:11;;;;;;;11.97;9.53;;;;;;;13.66;91.98;101715.28;5113415;28;20215;-81
2023/10/04 07:48:37;;;;;;;15.33;10.53;;;;;;;13.72;92.06;101712.25;5106792;28;20218;-81
2023/10/04 07:51:04;;;;;;;14.83;10.13;;;;;;;13.78;92.50;101712.78;5107996;28;20230;-81
2023/10/04 07:53:32;;;;;;;13.77;9.20;;;;;;;13.85;91.24;101718.59;5110695;28;20200;-80
2023/10/04 07:55:58;;;;;;;13.57;9.23;;;;;;;13.93;91.19;101715.47;5111138;28;20223;-81
2023/10/04 07:58:25;;;;;;;12.53;10.57;;;;;;;13.97;90.59;101717.88;5105854;28;20211;-81
2023/10/04 08:00:51;;;;;;;14.20;10.07;;;;;;;14.08;90.33;101733.28;5111142;28;20582;-81
2023/10/04 08:03:19;;;;;;;15.00;9.57;;;;;;;14.14;90.13;101722.22;5110739;28;20207;-81
2023/10/04 08:05:45;;;;;;;12.27;9.33;;;;;;;14.25;89.61;101733.13;5114451;28;20306;-81
2023/10/04 08:08:12;;;;;;;13.47;10.40;;;;;;;14.32;89.07;101730.94;5108353;28;20199;-81
2023/10/04 08:10:40;;;;;;;11.30;8.97;;;;;;;14.40;88.25;101737.56;5108782;28;20232;-81
2023/10/04 08:13:07;;;;;;;11.97;8.57;;;;;;;14.43;86.80;101728.47;5113336;28;20272;-80
2023/10/04 08:15:36;;;;;;;10.23;8.07;;;;;;;14.48;86.66;101723.69;5110272;28;20231;-80
2023/10/04 08:18:03;;;;;;;13.07;9.00;;;;;;;14.49;86.50;101728.97;5109989;28;20200;-80
2023/10/04 08:20:32;;;;;;;10.57;8.60;;;;;;;14.59;85.96;101723.88;5107275;28;20273;-81
2023/10/04 08:22:59;;;;;;;11.20;8.67;;;;;;;14.65;86.95;101723.50;5110582;28;20664;-81
2023/10/04 08:25:27;;;;;;;11.70;8.13;;;;;;;14.73;86.08;101728.34;5114564;28;20219;-81
2023/10/04 08:27:56;;;;;;;15.70;8.97;;;;;;;14.81;85.26;101726.91;5115546;28;20294;-81
2023/10/04 08:30:23;;;;;;;12.27;9.20;;;;;;;14.86;84.40;101734.69;5106786;28;20691;-81
2023/10/04 08:32:51;;;;;;;15.87;9.83;;;;;;;14.89;83.83;101732.63;5111613;28;20231;-82
2023/10/04 08:35:24;;;;;;;14.93;9.80;;;;;;;14.97;83.79;101734.84;5107015;28;20252;-81
2023/10/04 08:37:53;;;;;;;9.77;8.47;;;;;;;15.08;83.70;101736.81;5110860;28;20200;-81
2023/10/04 08:40:19;;;;;;;12.63;9.03;;;;;;;15.14;82.19;101742.66;5106420;28;20291;-81
2023/10/04 08:42:50;;;;;;;14.17;9.47;;;;;;;15.20;82.13;101747.63;5112308;28;20637;-81
2023/10/04 08:45:18;;;;;;;14.80;9.70;;;;;;;15.26;82.58;101739.16;5109016;28;20227;-82
2023/10/04 08:47:50;;;;;;;12.67;8.37;;;;;;;15.37;80.74;101740.28;5108484;28;20261;-81
2023/10/04 08:50:20;;;;;;;9.80;8.47;;;;;;;15.42;81.01;101724.72;5107115;28;20216;-81
2023/10/04 08:52:49;;;;;;;12.47;9.63;;;;;;;15.52;79.91;101734.75;5105907;28;20260;-81
2023/10/04 08:55:22;;;;;;;13.00;8.90;;;;;;;15.59;80.17;101736.09;5109249;28;20220;-80
2023/10/04 08:57:51;;;;;;;15.27;8.23;;;;;;;15.67;80.02;101740.09;5106394;28;20239;-81
2023/10/04 09:00:23;;;;;;;10.77;8.97;;;;;;;15.73;79.60;101723.56;5108752;28;20216;-81
2023/10/04 09:02:51;;;;;;;13.20;9.50;;;;;;;15.81;79.49;101738.19;5105920;28;20205;-82
2023/10/04 09:05:23;;;;;;;10.87;8.63;;;;;;;15.84;77.18;101727.25;5108476;28;20751;-82
2023/10/04 09:07:51;;;;;;;10.17;7.80;;;;;;;15.89;77.18;101726.94;5112337;28;20282;-81
2023/10/04 09:10:19;;;;;;;11.23;8.07;;;;;;;15.94;77.07;101731.00;5110866;28;20199;-82
2023/10/04 09:12:47;;;;;;;10.77;8.37;;;;;;;16.03;77.29;101726.84;5108463;28;20231;-82
2023/10/04 09:15:14;;;;;;;9.07;7.43;;;;;;;16.07;76.10;101727.50;5106684;28;20744;-82
2023/10/04 09:17:47;;;;;;;8.20;7.40;;;;;;;16.09;75.61;101712.13;5101027;28;20262;-81
2023/10/04 09:20:16;;;;;;;9.33;7.43;;;;;;;16.13;76.44;101722.53;5103977;28;20580;-81
2023/10/04 09:22:43;;;;;;;8.27;7.10;;;;;;;16.19;76.31;101727.50;5104930;28;20203;-81
2023/10/04 09:25:10;;;;;;;11.77;7.03;;;;;;;16.24;75.22;101735.25;5106972;28;20228;-82
2023/10/04 09:27:37;;;;;;;10.30;7.03;;;;;;;16.31;75.75;101737.38;5106629;28;20685;-81
2023/10/04 09:30:20;;;;;;;9.60;6.40;;;;;;;16.40;74.76;101735.88;5111381;28;20266;-81
2023/10/04 09:32:49;;;;;;;11.60;7.50;;;;;;;16.45;74.06;101735.56;5107761;28;20210;-81
2023/10/04 09:35:18;;;;;;;10.63;6.70;;;;;;;16.51;73.53;101727.03;5104722;28;20646;-81
2023/10/04 09:37:45;;;;;;;8.63;6.30;;;;;;;16.58;73.03;101731.88;5108813;28;20232;-82
2023/10/04 09:40:15;;;;;;;10.33;6.67;;;;;;;16.65;73.08;101729.66;5103146;28;20207;-81
2023/10/04 09:42:46;;;;;;;12.43;6.90;;;;;;;16.70;73.27;101732.88;5109469;28;20312;-81
2023/10/04 09:45:14;;;;;;;10.30;6.33;;;;;;;16.74;72.68;101725.44;5108631;28;20237;-80
2023/10/04 09:47:40;;;;;;;8.53;6.57;;;;;;;16.81;71.82;101734.81;5102190;28;20214;-82
2023/10/04 09:50:13;;;;;;;9.77;6.23;;;;;;;16.82;70.01;101747.28;5107164;28;20297;-82
2023/10/04 09:52:39;;;;;;;7.37;5.90;;;;;;;16.83;70.09;101759.78;5098204;28;20218;-81
2023/10/04 09:55:08;;;;;;;6.57;5.60;;;;;;;16.83;70.00;101763.31;5106147;28;20226;-81
2023/10/04 09:57:37;;;;;;;7.90;5.90;;;;;;;16.87;70.36;101755.88;5097191;28;20210;-81
2023/10/04 10:00:12;;;;;;;7.23;6.10;;;;;;;16.92;69.67;101756.41;5111156;28;20201;-81
2023/10/04 10:02:41;;;;;;;10.33;5.97;;;;;;;16.95;69.93;101756.19;5109166;28;20200;-81
2023/10/04 10:05:11;;;;;;;10.03;5.87;;;;;;;16.97;69.42;101760.47;5114770;28;20690;-80
2023/10/04 10:07:41;;;;;;;9.93;6.00;;;;;;;16.96;69.31;101756.06;5111608;28;20212;-81
2023/10/04 10:10:12;;;;;;;9.73;6.00;;;;;;;17.04;69.49;101762.72;5111658;28;20208;-81
2023/10/04 10:12:39;;;;;;;8.10;6.27;;;;;;;17.05;68.49;101759.03;5114229;28;20241;-81
2023/10/04 10:15:07;;;;;;;7.93;5.83;;;;;;;17.06;68.67;101758.94;5113398;28;20227;-81
2023/10/04 10:17:35;;;;;;;7.50;5.10;;;;;;;17.04;67.70;101750.13;5111317;28;20253;-81
2023/10/04 10:20:04;;;;;;;6.63;5.30;;;;;;;17.02;67.64;101751.22;5111476;28;20203;-81
2023/10/04 10:22:34;;;;;;;8.93;5.00;;;;;;;17.05;68.61;101749.16;5110162;28;20207;-80
2023/10/04 10:25:14;;;;;;;6.93;5.70;;;;;;;17.14;68.41;101756.56;5115811;28;20698;-82
2023/10/04 10:27:42;;;;;;;6.67;5.53;;;;;;;17.20;68.36;101756.09;5107491;28;20249;-81
2023/10/04 10:30:12;;;;;;;10.20;5.57;;;;;;;17.25;68.22;101755.75;5114537;28;20206;-81
2023/10/04 10:32:49;;;;;;;8.07;5.63;;;;;;;17.34;66.95;101761.34;5111887;28;20246;-81
2023/10/04 10:35:52;;;;;;;10.87;5.50;;;;;;;17.35;66.81;101749.59;5118161;28;20212;-81
2023/10/04 10:38:44;;;;;;;8.17;5.13;;;;;;;17.41;67.45;101756.34;5115372;28;20195;-82
2023/10/04 10:42:05;;;;;;;10.27;5.13;;;;;;;17.44;66.18;101744.47;5110634;28;20193;-81
2023/10/04 10:44:37;;;;;;;8.50;4.37;;;;;;;17.46;64.85;101750.63;5111644;28;20222;-82
2023/10/04 10:47:06;;;;;;;8.43;4.10;;;;;;;17.47;65.10;101755.03;5109267;28;20232;-81
2023/10/04 10:49:40;;;;;;;11.77;4.30;;;;;;;17.48;65.08;101751.38;5114191;28;20200;-81
2023/10/04 10:52:09;;;;;;;8.17;5.10;;;;;;;17.56;66.15;101752.50;5109630;28;20220;-81
2023/10/04 10:54:37;;;;;;;7.27;5.03;;;;;;;17.56;65.82;101762.41;5112651;28;20227;-81
2023/10/04 10:57:05;;;;;;;6.97;4.37;;;;;;;17.63;66.30;101750.22;5111408;28;20229;-81
2023/10/04 10:59:32;;;;;;;9.50;4.30;;;;;;;17.67;64.95;101751.72;5113071;28;20264;-81
2023/10/04 11:01:59;;;;;;;9.63;5.47;;;;;;;17.68;65.06;101750.75;5109898;28;20193;-80
2023/10/04 11:04:25;;;;;;;6.77;4.30;;;;;;;17.67;65.17;101749.91;5107165;28;20201;-80
2023/10/04 11:06:52;;;;;;;8.70;4.60;;;;;;;17.71;63.00;101750.53;5111759;28;20204;-82
2023/10/04 11:09:20;;;;;;;6.73;3.70;;;;;;;17.75;63.28;101753.81;5109219;28;20230;-81
2023/10/04 11:11:49;;;;;;;9.37;3.83;;;;;;;17.79;63.91;101750.78;5113361;28;20206;-82
2023/10/04 11:14:17;;;;;;;8.70;4.57;;;;;;;17.84;63.38;101745.91;5113321;28;20198;-82
2023/10/04 11:16:44;;;;;;;8.17;4.43;;;;;;;17.92;63.14;101751.56;5110114;28;20258;-80
2023/10/04 11:19:12;;;;;;;8.27;3.90;;;;;;;17.94;62.87;101757.69;5106067;28;20237;-82
2023/10/04 11:21:39;;;;;;;5.63;3.30;;;;;;;17.98;62.09;101759.19;5111747;28;20217;-81
2023/10/04 11:24:09;;;;;;;6.13;3.63;;;;;;;17.99;62.22;101752.81;5108277;28;20201;-81
2023/10/04 11:26:40;;;;;;;8.47;3.90;;;;;;;18.02;61.25;101749.03;5109419;28;20202;-81